Time;durP1;ratioP1;P1;durP2;ratioP2;P2;SDS_P1;SDS_P2;PMS_P1;PMS_P2;Temp;Humidity;BMP_temperature;BMP_pressure;BME280_temperature;BME280_humidity;BME280_pressure;Samples;Min_cycle;Max_cycle;Signal;HPM_P1;HPM_P2
2023/10/05 03:01:24;;;;;;;3.70;1.60;;;18.10;71.00;;;;;;5143358;23;20123;-95
2023/10/05 03:07:53;;;;;;;;;;;;;;;;;;;;;
2023/10/05 03:14:29;;;;;;;3.55;1.50;;;18.10;71.10;;;;;;4906657;29;20100;-95
2023/10/05 03:17:26;;;;;;;4.50;1.80;;;18.10;70.90;;;;;;4883212;29;20045;-95
2023/10/05 03:20:20;;;;;;;3.88;1.73;;;18.10;71.00;;;;;;4833588;29;20045;-95
2023/10/05 03:22:46;;;;;;;8.98;1.67;;;18.10;70.80;;;;;;4848950;29;20034;-95
2023/10/05 03:25:51;;;;;;;5.38;1.63;;;18.10;71.00;;;;;;4861086;29;20038;-94
2023/10/05 03:28:20;;;;;;;3.03;1.75;;;18.00;70.70;;;;;;4838501;29;20053;-92
2023/10/05 03:31:14;;;;;;;8.43;1.88;;;18.00;70.40;;;;;;4866367;29;20065;-95
2023/10/05 03:34:11;;;;;;;3.83;1.65;;;18.10;70.70;;;;;;4831170;29;20037;-95
2023/10/05 03:36:55;;;;;;;4.30;1.55;;;18.00;70.60;;;;;;4830898;29;20050;-92
2023/10/05 03:40:37;;;;;;;;;;;;;;;;;;;;;
2023/10/05 03:43:05;;;;;;;3.80;1.73;;;18.00;70.60;;;;;;4842874;29;20041;-95
2023/10/05 03:46:06;;;;;;;6.18;1.67;;;18.00;70.60;;;;;;4857757;29;20061;-95
2023/10/05 03:48:44;;;;;;;6.43;1.70;;;18.00;70.60;;;;;;4856087;29;20040;-92
2023/10/05 03:52:06;;;;;;;5.65;1.38;;;18.00;70.40;;;;;;4880193;29;20044;-94
2023/10/05 03:55:33;;;;;;;4.07;1.65;;;18.00;70.40;;;;;;4849048;29;20033;-94
2023/10/05 03:57:47;;;;;;;2.13;1.50;;;18.00;70.60;;;;;;4904006;29;20048;-95
2023/10/05 04:03:21;;;;;;;3.50;1.63;;;18.00;70.20;;;;;;4909273;29;20060;-94
2023/10/05 04:05:51;;;;;;;4.70;1.63;;;17.90;70.00;;;;;;4877675;29;20130;-94
2023/10/05 04:08:27;;;;;;;4.47;2.15;;;18.00;70.30;;;;;;4893621;29;20049;-94
2023/10/05 04:10:55;;;;;;;7.13;1.83;;;18.00;70.20;;;;;;4895065;29;20051;-95
2023/10/05 04:13:32;;;;;;;5.78;2.05;;;18.00;70.30;;;;;;4891607;29;20029;-95
2023/10/05 04:16:39;;;;;;;5.40;1.63;;;18.50;70.40;;;;;;4893029;29;20045;-94
2023/10/05 04:19:18;;;;;;;8.70;1.70;;;18.00;70.20;;;;;;4894430;29;20038;-95
2023/10/05 04:21:47;;;;;;;2.38;1.48;;;18.20;70.30;;;;;;4889238;29;20163;-92
2023/10/05 04:24:17;;;;;;;10.43;1.92;;;18.00;70.10;;;;;;4926669;29;20032;-95
2023/10/05 04:26:48;;;;;;;5.18;1.90;;;18.00;70.00;;;;;;4935756;29;20249;-95
2023/10/05 04:29:27;;;;;;;5.10;1.75;;;18.00;70.00;;;;;;4934684;29;20036;-94
2023/10/05 04:32:06;;;;;;;4.22;1.25;;;18.00;69.90;;;;;;4938305;29;20220;-94
2023/10/05 04:34:33;;;;;;;2.88;1.80;;;18.00;70.00;;;;;;4936277;29;20035;-95
2023/10/05 04:37:03;;;;;;;6.78;1.95;;;18.00;70.10;;;;;;4966094;28;20034;-95
2023/10/05 04:39:32;;;;;;;7.28;1.88;;;18.00;70.00;;;;;;5028413;28;20045;-94
2023/10/05 04:42:21;;;;;;;4.10;1.65;;;18.00;70.00;;;;;;5021262;28;20050;-94
2023/10/05 04:44:48;;;;;;;6.78;1.80;;;18.00;69.90;;;;;;5031713;28;20096;-92
2023/10/05 04:47:36;;;;;;;10.73;2.03;;;18.00;69.90;;;;;;5024701;28;20030;-95
2023/10/05 04:50:35;;;;;;;4.80;1.90;;;18.00;69.90;;;;;;5015966;28;20083;-95
2023/10/05 04:53:09;;;;;;;4.70;1.75;;;18.00;70.70;;;;;;5011970;28;20044;-95
2023/10/05 04:56:27;;;;;;;7.75;2.45;;;18.00;69.80;;;;;;5019946;28;20057;-94
2023/10/05 05:02:07;;;;;;;5.85;1.95;;;18.00;70.00;;;;;;5032048;28;20030;-95
2023/10/05 05:08:17;;;;;;;1.83;1.27;;;18.00;70.00;;;;;;5012079;28;19908;-94
2023/10/05 05:11:36;;;;;;;5.40;1.83;;;18.00;70.20;;;;;;5035277;28;20026;-96
2023/10/05 05:16:58;;;;;;;5.32;1.85;;;18.00;69.90;;;;;;4895750;29;20044;-96
2023/10/05 05:19:30;;;;;;;7.20;2.08;;;18.00;70.00;;;;;;4892925;29;20073;-94
2023/10/05 05:22:05;;;;;;;10.32;2.05;;;18.00;70.50;;;;;;4892555;29;20076;-93
2023/10/05 05:25:33;;;;;;;4.72;1.80;;;18.00;69.70;;;;;;4912770;29;20149;-96
2023/10/05 05:38:41;;;;;;;4.68;1.80;;;18.00;69.90;;;;;;4831412;29;20137;-95
2023/10/05 05:41:23;;;;;;;4.22;1.63;;;17.90;69.60;;;;;;4816961;29;20031;-95
2023/10/05 05:44:21;;;;;;;6.28;1.80;;;18.00;69.90;;;;;;4816060;29;20055;-95
2023/10/05 05:46:59;;;;;;;5.22;2.00;;;18.00;69.80;;;;;;4831807;29;20102;-96
2023/10/05 05:49:27;;;;;;;3.80;2.05;;;17.90;69.80;;;;;;4817302;29;20554;-95
2023/10/05 05:52:22;;;;;;;4.65;2.00;;;17.90;69.60;;;;;;4816022;29;20151;-96
2023/10/05 05:54:51;;;;;;;2.75;1.75;;;17.90;69.80;;;;;;4813958;29;20103;-95
2023/10/05 05:57:42;;;;;;;5.13;2.08;;;17.90;69.70;;;;;;4833956;29;20069;-93
2023/10/05 06:00:24;;;;;;;7.22;1.95;;;17.90;69.80;;;;;;4862750;29;20086;-96
2023/10/05 06:03:00;;;;;;;5.40;1.70;;;18.00;69.80;;;;;;4861827;29;20060;-94
2023/10/05 06:05:33;;;;;;;6.35;1.38;;;18.00;69.70;;;;;;4850604;29;20045;-96
2023/10/05 06:08:01;;;;;;;3.60;2.03;;;17.90;69.60;;;;;;4871982;29;20077;-96
2023/10/05 06:10:28;;;;;;;7.85;1.88;;;17.90;69.60;;;;;;4898540;28;20033;-95
2023/10/05 06:12:58;;;;;;;8.32;1.83;;;18.00;69.70;;;;;;4981243;28;20043;-95
2023/10/05 06:15:31;;;;;;;9.65;1.95;;;18.00;69.60;;;;;;4977803;28;20095;-96
2023/10/05 06:18:20;;;;;;;5.55;2.25;;;17.90;69.90;;;;;;4978639;28;20030;-95
2023/10/05 06:20:57;;;;;;;6.93;2.10;;;17.90;69.90;;;;;;4963000;28;20039;-95
2023/10/05 06:23:57;;;;;;;8.50;2.15;;;18.00;69.90;;;;;;4966576;28;20031;-95
2023/10/05 06:26:23;;;;;;;2.78;1.48;;;17.90;69.70;;;;;;4972301;28;20102;-94
2023/10/05 06:28:49;;;;;;;8.25;1.70;;;17.90;69.70;;;;;;4981327;28;20034;-94
2023/10/05 06:31:15;;;;;;;3.42;1.58;;;17.90;69.60;;;;;;5023046;28;20056;-94
2023/10/05 06:33:46;;;;;;;5.22;1.90;;;17.90;69.60;;;;;;5020103;28;20088;-93
2023/10/05 06:36:14;;;;;;;6.15;1.73;;;17.90;69.70;;;;;;5018827;28;20041;-94
2023/10/05 06:38:58;;;;;;;7.57;1.60;;;17.90;69.70;;;;;;5025918;28;20022;-95
2023/10/05 06:41:27;;;;;;;1.75;1.20;;;18.00;70.00;;;;;;5021705;28;20022;-96
2023/10/05 06:43:57;;;;;;;6.53;1.95;;;17.90;69.80;;;;;;5015784;28;20021;-96
2023/10/05 06:46:23;;;;;;;;;;;18.30;70.00;;;;;;5023832;28;20049;-94
2023/10/05 06:48:53;;;;;;;3.95;1.50;;;17.90;69.90;;;;;;5034705;28;19909;-93
2023/10/05 06:51:29;;;;;;;2.08;1.33;;;17.90;69.90;;;;;;5017024;28;20045;-95
2023/10/05 06:53:57;;;;;;;3.63;1.50;;;17.90;70.00;;;;;;5015871;28;20088;-95
2023/10/05 06:56:24;;;;;;;8.05;1.80;;;17.90;70.00;;;;;;5023419;28;20429;-88
2023/10/05 06:58:50;;;;;;;2.05;1.63;;;17.90;70.00;;;;;;5039502;28;20049;-95
2023/10/05 07:01:20;;;;;;;7.38;2.00;;;17.90;70.00;;;;;;5018112;28;20036;-95
2023/10/05 07:04:01;;;;;;;;;;;17.60;69.80;;;;;;5024918;28;20028;-96
2023/10/05 07:06:33;;;;;;;7.43;1.65;;;17.90;70.20;;;;;;5024003;28;19905;-94
2023/10/05 07:09:01;;;;;;;3.95;1.77;;;17.90;70.10;;;;;;5027616;28;20033;-95
2023/10/05 07:11:26;;;;;;;14.77;1.98;;;18.00;70.20;;;;;;5020901;28;20033;-94
2023/10/05 07:13:52;;;;;;;8.38;1.45;;;18.00;70.20;;;;;;5039410;28;20026;-95
2023/10/05 07:16:18;;;;;;;5.50;1.90;;;18.00;70.20;;;;;;5025181;28;20022;-92
2023/10/05 07:18:44;;;;;;;3.05;1.45;;;18.00;70.20;;;;;;5025714;28;20014;-94
2023/10/05 07:21:10;;;;;;;8.55;1.88;;;17.90;70.20;;;;;;5025134;28;20112;-95
2023/10/05 07:23:37;;;;;;;3.13;1.83;;;18.00;70.30;;;;;;5024949;28;20024;-94
2023/10/05 07:26:07;;;;;;;3.85;2.15;;;18.00;70.50;;;;;;5027847;28;20044;-94
2023/10/05 07:28:40;;;;;;;10.27;1.75;;;18.00;70.60;;;;;;5022613;28;20474;-94
2023/10/05 07:31:06;;;;;;;7.60;1.80;;;18.00;70.50;;;;;;5020801;28;20022;-95
2023/10/05 07:33:38;;;;;;;4.10;1.80;;;18.00;70.50;;;;;;5023052;28;20021;-95
2023/10/05 07:36:05;;;;;;;7.15;1.73;;;18.00;70.60;;;;;;5036884;28;20017;-94
2023/10/05 07:38:32;;;;;;;5.25;1.48;;;18.00;70.50;;;;;;5028468;28;20084;-95
2023/10/05 07:40:59;;;;;;;6.85;2.00;;;18.00;70.70;;;;;;5029222;28;20055;-96
2023/10/05 07:43:27;;;;;;;4.90;1.83;;;18.00;70.80;;;;;;5043055;28;20041;-94
2023/10/05 07:45:54;;;;;;;4.85;1.92;;;18.00;70.60;;;;;;5029516;28;20048;-93
2023/10/05 07:48:22;;;;;;;8.20;1.63;;;18.00;70.70;;;;;;5024810;28;20052;-94
2023/10/05 07:50:51;;;;;;;10.40;2.28;;;18.00;70.80;;;;;;5024352;28;20034;-95
2023/10/05 07:53:19;;;;;;;3.85;1.75;;;18.00;70.80;;;;;;5018117;28;20030;-96
2023/10/05 07:55:45;;;;;;;3.58;1.63;;;18.00;70.80;;;;;;5035797;28;20021;-96
2023/10/05 07:58:14;;;;;;;6.53;1.92;;;18.00;70.80;;;;;;5027466;28;20037;-96
2023/10/05 08:00:40;;;;;;;4.45;1.63;;;18.00;70.90;;;;;;5029015;28;20018;-94
2023/10/05 08:03:06;;;;;;;6.15;2.00;;;18.00;70.90;;;;;;5037831;28;20087;-94
2023/10/05 08:05:32;;;;;;;2.38;1.58;;;18.00;71.00;;;;;;5017081;28;20026;-93
2023/10/05 08:07:58;;;;;;;5.78;1.55;;;18.00;71.10;;;;;;5024756;28;20022;-94
2023/10/05 08:10:23;;;;;;;6.75;1.90;;;18.00;71.10;;;;;;5025801;28;20033;-96
2023/10/05 08:12:53;;;;;;;4.25;1.55;;;18.00;71.10;;;;;;5024348;28;20057;-95
2023/10/05 08:15:18;;;;;;;8.83;1.67;;;18.10;71.20;;;;;;5028413;28;20017;-93
2023/10/05 08:17:46;;;;;;;8.98;1.50;;;18.00;71.10;;;;;;5028459;28;20286;-95
2023/10/05 08:20:11;;;;;;;4.63;1.60;;;18.00;71.30;;;;;;5019787;28;20021;-94
2023/10/05 08:22:37;;;;;;;7.65;1.67;;;18.00;71.20;;;;;;5021192;28;20021;-95
2023/10/05 08:25:10;;;;;;;18.40;4.13;;;18.00;71.30;;;;;;5036477;28;20026;-94
2023/10/05 08:27:37;;;;;;;12.55;3.97;;;18.00;71.50;;;;;;5020310;28;20079;-94
2023/10/05 08:30:08;;;;;;;5.85;1.95;;;18.00;71.50;;;;;;5011657;28;20017;-93
2023/10/05 08:32:36;;;;;;;16.63;2.28;;;18.40;71.80;;;;;;5022691;28;20026;-94
2023/10/05 08:35:14;;;;;;;6.18;1.38;;;18.00;72.40;;;;;;5020424;28;20022;-94
2023/10/05 08:37:47;;;;;;;6.65;1.92;;;18.00;71.60;;;;;;5014783;28;20022;-93
2023/10/05 08:43:10;;;;;;;6.43;2.38;;;17.90;71.80;;;;;;5025214;28;20029;-93
2023/10/05 08:45:51;;;;;;;6.28;2.05;;;18.10;71.90;;;;;;5020114;28;20018;-93
2023/10/05 08:48:29;;;;;;;5.40;1.90;;;18.10;71.90;;;;;;5018021;28;20212;-95
2023/10/05 08:51:12;;;;;;;3.85;1.85;;;18.00;72.00;;;;;;5018477;28;20017;-94
2023/10/05 08:53:55;;;;;;;5.45;2.13;;;18.10;72.20;;;;;;5021024;28;20033;-94
2023/10/05 08:56:22;;;;;;;10.02;2.63;;;18.00;72.20;;;;;;5019352;28;20025;-94
2023/10/05 08:58:49;;;;;;;6.45;2.08;;;18.10;72.30;;;;;;5022395;28;20097;-93
2023/10/05 09:01:35;;;;;;;5.90;2.08;;;18.00;72.30;;;;;;5018132;28;20164;-95
2023/10/05 09:06:59;;;;;;;8.77;2.15;;;18.10;72.40;;;;;;5026437;28;20028;-95
2023/10/05 09:09:54;;;;;;;10.13;2.17;;;18.10;72.50;;;;;;5013017;28;20067;-94
2023/10/05 09:12:41;;;;;;;9.88;2.55;;;18.10;72.50;;;;;;5019711;28;20037;-95
2023/10/05 09:20:38;;;;;;;8.40;2.38;;;18.10;73.40;;;;;;5025051;28;20018;-95
2023/10/05 09:23:06;;;;;;;17.20;2.53;;;18.10;72.80;;;;;;5025322;28;20017;-94
2023/10/05 09:25:34;;;;;;;13.55;2.50;;;18.10;72.90;;;;;;5016778;28;20157;-94
2023/10/05 09:28:15;;;;;;;11.63;2.20;;;18.10;72.90;;;;;;5022354;28;20085;-94
2023/10/05 09:30:55;;;;;;;5.55;2.17;;;18.10;73.00;;;;;;5027026;28;20401;-94
2023/10/05 09:33:34;;;;;;;5.60;2.35;;;18.10;73.70;;;;;;5035150;28;20028;-96
2023/10/05 09:36:16;;;;;;;12.43;2.65;;;18.20;73.10;;;;;;5011975;28;20049;-96
2023/10/05 09:38:47;;;;;;;8.07;2.38;;;18.10;73.10;;;;;;5012578;28;20052;-95
2023/10/05 09:41:20;;;;;;;5.95;2.45;;;18.10;73.20;;;;;;5021627;28;20034;-93
2023/10/05 09:43:58;;;;;;;9.52;2.72;;;18.10;73.10;;;;;;5015180;28;20080;-94
2023/10/05 09:46:27;;;;;;;12.32;2.67;;;18.10;73.20;;;;;;5013598;28;20017;-94
2023/10/05 09:48:53;;;;;;;7.50;2.78;;;18.10;73.30;;;;;;5018674;28;20057;-95
2023/10/05 09:51:19;;;;;;;12.20;2.45;;;18.10;73.20;;;;;;5017268;28;20034;-95
2023/10/05 09:53:48;;;;;;;7.72;2.90;;;18.10;73.40;;;;;;5010172;28;20545;-95
2023/10/05 09:56:17;;;;;;;10.73;2.70;;;18.10;73.50;;;;;;5018367;28;20022;-94
2023/10/05 09:58:46;;;;;;;13.77;2.58;;;18.10;73.50;;;;;;5018021;28;20018;-94
2023/10/05 10:01:14;;;;;;;14.15;3.30;;;18.10;73.50;;;;;;5018979;28;20038;-96
2023/10/05 10:03:45;;;;;;;16.70;3.05;;;18.10;73.60;;;;;;5013553;28;20021;-88
2023/10/05 10:06:13;;;;;;;8.50;2.67;;;18.20;73.70;;;;;;5010509;28;20018;-96
2023/10/05 10:09:09;;;;;;;6.40;2.17;;;18.10;73.70;;;;;;5012524;28;20024;-96
2023/10/05 10:11:36;;;;;;;11.73;2.60;;;18.10;73.60;;;;;;5001594;28;20037;-94
2023/10/05 10:14:06;;;;;;;9.38;2.45;;;18.10;73.70;;;;;;5012545;28;20025;-94
2023/10/05 10:16:33;;;;;;;5.65;2.60;;;18.10;73.90;;;;;;5010195;28;20026;-91
2023/10/05 10:19:07;;;;;;;8.65;2.47;;;18.20;74.10;;;;;;5011578;28;20025;-93
2023/10/05 10:21:35;;;;;;;8.82;2.90;;;18.10;74.20;;;;;;5005088;28;20113;-95
2023/10/05 10:24:08;;;;;;;8.00;2.60;;;18.10;74.10;;;;;;5010433;28;20041;-94
2023/10/05 10:27:07;;;;;;;11.75;2.80;;;18.20;74.10;;;;;;5009062;28;20030;-95
2023/10/05 10:29:51;;;;;;;8.82;2.35;;;18.10;74.10;;;;;;5014197;28;20136;-92
2023/10/05 10:32:32;;;;;;;10.52;2.22;;;18.20;74.10;;;;;;5012013;28;20024;-95
2023/10/05 10:35:14;;;;;;;8.95;3.08;;;18.20;74.10;;;;;;5019783;28;20036;-95
2023/10/05 10:37:50;;;;;;;7.45;2.78;;;18.20;74.20;;;;;;5025615;28;20041;-95
2023/10/05 10:45:33;;;;;;;13.30;3.00;;;18.20;74.30;;;;;;5037636;28;20028;-95
2023/10/05 10:48:00;;;;;;;4.40;2.58;;;18.20;74.40;;;;;;5022149;28;20113;-93
2023/10/05 10:50:37;;;;;;;7.43;2.13;;;18.20;75.10;;;;;;5019849;28;20033;-95
2023/10/05 10:53:16;;;;;;;7.25;1.92;;;18.20;74.30;;;;;;5019202;28;20049;-94
2023/10/05 10:55:51;;;;;;;4.40;2.30;;;18.20;74.30;;;;;;5024511;28;20052;-96
2023/10/05 10:58:23;;;;;;;7.50;2.33;;;18.20;74.40;;;;;;5016446;28;20093;-93
2023/10/05 11:01:13;;;;;;;6.65;2.90;;;18.20;74.40;;;;;;5012226;28;20118;-96
2023/10/05 11:03:41;;;;;;;8.35;3.38;;;18.20;74.50;;;;;;5011161;28;20025;-96
2023/10/05 11:06:09;;;;;;;9.57;2.63;;;18.20;74.40;;;;;;5013904;28;20037;-84
2023/10/05 11:08:40;;;;;;;8.05;3.50;;;19.30;75.30;;;;;;5023514;28;20043;-82
2023/10/05 11:11:15;;;;;;;7.40;2.72;;;18.10;73.20;;;;;;5014417;28;20044;-81
2023/10/05 11:13:43;;;;;;;9.13;2.30;;;18.00;73.40;;;;;;5021949;28;20029;-83
2023/10/05 11:16:09;;;;;;;6.03;2.20;;;18.00;73.60;;;;;;5013659;28;20026;-84
2023/10/05 11:18:41;;;;;;;4.35;2.15;;;18.00;73.10;;;;;;5022550;28;20022;-82
2023/10/05 11:21:12;;;;;;;7.13;2.20;;;18.00;73.30;;;;;;5014288;28;20504;-84
2023/10/05 11:23:55;;;;;;;11.13;2.53;;;18.00;73.40;;;;;;5010376;28;20525;-84
2023/10/05 11:26:35;;;;;;;6.63;2.40;;;18.00;73.80;;;;;;5024945;28;20445;-84
2023/10/05 11:29:07;;;;;;;6.33;2.27;;;18.00;73.70;;;;;;5027020;28;20028;-85
2023/10/05 11:31:37;;;;;;;5.93;2.35;;;18.00;74.10;;;;;;5026659;28;20601;-84
2023/10/05 11:34:11;;;;;;;11.00;2.15;;;18.10;73.80;;;;;;5012350;28;20064;-83
2023/10/05 11:36:42;;;;;;;11.93;2.47;;;18.00;73.30;;;;;;5030150;28;20037;-84
2023/10/05 11:39:26;;;;;;;4.50;1.85;;;18.00;73.70;;;;;;5025923;28;20551;-84
2023/10/05 11:41:55;;;;;;;6.10;2.55;;;18.10;74.30;;;;;;5023833;28;20501;-84
2023/10/05 11:44:23;;;;;;;7.47;2.53;;;18.10;73.80;;;;;;5031569;28;20009;-84
2023/10/05 11:46:53;;;;;;;6.10;2.13;;;18.10;73.40;;;;;;5025743;28;20442;-83
2023/10/05 11:49:20;;;;;;;6.53;2.35;;;18.10;73.20;;;;;;5015253;28;20021;-83
2023/10/05 11:52:00;;;;;;;12.82;2.30;;;18.10;72.50;;;;;;5029155;28;20053;-84
2023/10/05 11:54:32;;;;;;;6.63;2.83;;;18.00;71.80;;;;;;5024499;28;20013;-82
2023/10/05 11:57:00;;;;;;;6.30;2.30;;;18.00;71.60;;;;;;5022420;28;20038;-83
2023/10/05 11:59:27;;;;;;;6.65;2.53;;;18.00;70.40;;;;;;5012317;28;20052;-83
2023/10/05 12:01:53;;;;;;;6.63;2.63;;;17.90;71.00;;;;;;5023261;28;20429;-83
2023/10/05 12:04:23;;;;;;;8.57;2.42;;;17.90;70.80;;;;;;5005639;28;20026;-83
2023/10/05 12:06:58;;;;;;;8.88;2.90;;;18.00;70.90;;;;;;5011513;28;20088;-83
2023/10/05 12:09:34;;;;;;;9.18;2.75;;;17.80;69.50;;;;;;5027512;28;20079;-83
2023/10/05 12:12:03;;;;;;;9.73;3.10;;;17.80;69.70;;;;;;5012828;28;20032;-83
2023/10/05 12:14:29;;;;;;;12.40;3.50;;;17.80;70.40;;;;;;5008826;28;20018;-82
2023/10/05 12:16:56;;;;;;;10.75;3.33;;;17.90;70.60;;;;;;5013169;28;20057;-83
2023/10/05 12:19:29;;;;;;;11.85;2.92;;;17.90;70.30;;;;;;5021293;28;20072;-82
2023/10/05 12:22:06;;;;;;;9.77;2.78;;;17.90;70.20;;;;;;5014489;28;20022;-82
2023/10/05 12:24:33;;;;;;;8.07;2.50;;;17.90;70.20;;;;;;5005024;28;20067;-83
2023/10/05 12:26:59;;;;;;;11.45;3.63;;;17.90;70.00;;;;;;5026965;28;20108;-82
2023/10/05 12:29:28;;;;;;;7.40;2.70;;;17.80;70.20;;;;;;5023267;28;20052;-83
2023/10/05 12:31:56;;;;;;;7.88;3.47;;;17.80;70.20;;;;;;5006525;28;20438;-84
2023/10/05 12:34:23;;;;;;;10.15;3.50;;;17.90;70.40;;;;;;5008458;28;20060;-83
2023/10/05 12:36:49;;;;;;;11.75;3.35;;;17.90;70.40;;;;;;5021623;28;20486;-83
2023/10/05 12:39:20;;;;;;;12.00;3.67;;;17.90;71.10;;;;;;5018729;28;20022;-82
2023/10/05 12:41:46;;;;;;;14.65;4.47;;;17.90;71.10;;;;;;5011318;28;20624;-83
2023/10/05 12:44:15;;;;;;;12.25;4.80;;;17.80;68.80;;;;;;5020146;28;20021;-82
2023/10/05 12:46:42;;;;;;;16.40;4.22;;;17.80;66.90;;;;;;5023302;28;20568;-82
2023/10/05 12:49:08;;;;;;;15.60;4.88;;;17.80;67.70;;;;;;5013232;28;20603;-82
2023/10/05 12:51:38;;;;;;;12.05;4.72;;;17.90;67.10;;;;;;5023933;28;20053;-84
2023/10/05 12:54:08;;;;;;;13.32;3.85;;;17.80;66.20;;;;;;5020272;28;20030;-83
2023/10/05 12:56:38;;;;;;;;;;;17.80;66.30;;;;;;5024994;28;20029;-82
2023/10/05 12:59:07;;;;;;;14.38;4.43;;;17.80;66.80;;;;;;5010420;28;19952;-82
2023/10/05 13:01:35;;;;;;;15.40;4.05;;;17.90;66.50;;;;;;5011382;28;20397;-81
2023/10/05 13:04:05;;;;;;;12.75;4.40;;;17.80;66.50;;;;;;5023480;28;20055;-81
2023/10/05 13:06:32;;;;;;;11.75;4.50;;;17.80;66.00;;;;;;5019803;28;20018;-81
2023/10/05 13:09:01;;;;;;;17.65;5.05;;;17.80;65.90;;;;;;5026555;28;20232;-82
2023/10/05 13:11:29;;;;;;;13.27;5.97;;;17.80;66.30;;;;;;5024744;28;20017;-82
2023/10/05 13:13:55;;;;;;;17.05;5.30;;;17.80;65.60;;;;;;5024199;28;20048;-82
2023/10/05 13:16:21;;;;;;;15.07;4.88;;;17.70;65.10;;;;;;5024315;28;20025;-82
2023/10/05 13:18:49;;;;;;;19.10;5.38;;;17.70;64.50;;;;;;5018715;28;20026;-82
2023/10/05 13:21:16;;;;;;;14.63;4.45;;;17.70;64.30;;;;;;5025926;28;20022;-82
2023/10/05 13:23:42;;;;;;;13.30;4.40;;;17.80;64.50;;;;;;5025075;28;20036;-82
2023/10/05 13:26:08;;;;;;;13.98;4.85;;;17.70;64.30;;;;;;5018816;28;20045;-81
2023/10/05 13:28:33;;;;;;;11.68;4.20;;;17.70;64.00;;;;;;5020805;28;20028;-82
2023/10/05 13:31:05;;;;;;;13.10;4.18;;;17.70;63.80;;;;;;5023360;28;20448;-82
2023/10/05 13:33:35;;;;;;;12.77;4.05;;;17.70;64.30;;;;;;5010396;28;20080;-83
2023/10/05 13:36:05;;;;;;;15.98;4.90;;;17.70;64.90;;;;;;5001324;28;20017;-82
2023/10/05 13:50:07;;;;;;;12.40;4.55;;;17.70;64.50;;;;;;5119443;27;20426;-78
2023/10/05 13:52:34;;;;;;;10.57;4.10;;;17.70;65.00;;;;;;5121182;28;20031;-77
2023/10/05 13:54:59;;;;;;;12.63;4.43;;;17.70;65.10;;;;;;5117114;28;20038;-78
2023/10/05 13:57:28;;;;;;;11.20;3.15;;;17.70;65.10;;;;;;5120092;27;20032;-77
2023/10/05 13:59:54;;;;;;;16.30;5.18;;;17.60;64.90;;;;;;5121838;28;20023;-78
2023/10/05 14:02:21;;;;;;;10.40;3.80;;;17.70;65.10;;;;;;5121612;28;20483;-78
2023/10/05 14:04:47;;;;;;;13.68;3.67;;;17.60;64.80;;;;;;5123383;27;20462;-78
2023/10/05 14:07:13;;;;;;;11.40;3.33;;;18.10;65.10;;;;;;5121113;27;20024;-78
2023/10/05 14:09:43;;;;;;;10.23;3.30;;;17.60;65.30;;;;;;5119815;27;20027;-78
2023/10/05 14:12:10;;;;;;;7.35;2.70;;;17.60;65.70;;;;;;5117645;28;20114;-79
2023/10/05 14:14:36;;;;;;;6.65;2.28;;;17.60;65.00;;;;;;5120994;27;21013;-78
2023/10/05 14:17:06;;;;;;;8.57;2.60;;;17.60;64.60;;;;;;5116839;28;20103;-78
2023/10/05 14:19:33;;;;;;;7.25;2.50;;;17.60;65.60;;;;;;5116007;28;20030;-78
2023/10/05 14:22:04;;;;;;;10.95;2.58;;;17.50;64.60;;;;;;5123216;28;20031;-78
2023/10/05 14:24:32;;;;;;;5.40;2.45;;;17.60;64.40;;;;;;5119600;28;20499;-78
2023/10/05 14:26:59;;;;;;;6.57;2.78;;;17.60;64.30;;;;;;5119121;27;20020;-78
2023/10/05 14:29:34;;;;;;;7.15;2.70;;;17.60;63.90;;;;;;5119000;28;20070;-78
2023/10/05 14:32:04;;;;;;;10.63;2.20;;;17.50;63.60;;;;;;5118107;28;20417;-78
2023/10/05 14:34:33;;;;;;;13.02;2.58;;;17.60;63.00;;;;;;5122030;28;20047;-77
2023/10/05 14:37:01;;;;;;;8.30;2.35;;;17.50;62.60;;;;;;5118718;28;20066;-78
2023/10/05 14:39:32;;;;;;;5.65;2.20;;;17.50;62.50;;;;;;5120565;28;20032;-78
2023/10/05 14:42:04;;;;;;;6.45;2.30;;;17.50;62.00;;;;;;5120099;28;20023;-78
2023/10/05 14:44:35;;;;;;;8.07;2.42;;;17.50;61.90;;;;;;5118265;28;20087;-78
2023/10/05 14:47:03;;;;;;;10.40;2.60;;;17.50;62.20;;;;;;5118667;28;20023;-78
2023/10/05 14:49:31;;;;;;;9.55;2.38;;;17.50;62.60;;;;;;5110226;27;20032;-78
2023/10/05 14:51:58;;;;;;;7.57;2.42;;;17.40;62.60;;;;;;5107306;28;20028;-78
2023/10/05 14:54:24;;;;;;;6.88;2.10;;;17.40;62.40;;;;;;5102556;28;20507;-78
2023/10/05 14:56:50;;;;;;;5.30;2.30;;;17.40;63.30;;;;;;5104195;28;20080;-78
2023/10/05 14:59:16;;;;;;;12.02;2.70;;;17.40;63.60;;;;;;5105465;28;20488;-78
2023/10/05 15:01:41;;;;;;;8.80;3.17;;;17.40;63.60;;;;;;5103767;28;20026;-77
2023/10/05 15:04:11;;;;;;;7.53;2.60;;;17.40;63.30;;;;;;5107731;28;20023;-78
2023/10/05 15:06:36;;;;;;;9.37;2.33;;;17.30;62.40;;;;;;5104385;28;20008;-77
2023/10/05 15:09:02;;;;;;;8.85;2.17;;;17.30;62.20;;;;;;5103018;28;20016;-77
2023/10/05 15:11:28;;;;;;;6.50;2.63;;;17.40;62.30;;;;;;5110407;28;20077;-78
2023/10/05 15:13:54;;;;;;;5.50;2.47;;;17.30;62.20;;;;;;5102051;28;20024;-78
2023/10/05 15:16:23;;;;;;;9.70;2.97;;;17.30;62.90;;;;;;5097987;28;20036;-78
2023/10/05 15:18:48;;;;;;;11.38;3.13;;;17.30;63.20;;;;;;5103972;28;20053;-77
2023/10/05 15:21:15;;;;;;;6.18;2.58;;;17.30;64.40;;;;;;5101476;28;20026;-77
2023/10/05 15:23:41;;;;;;;7.95;2.92;;;17.30;64.80;;;;;;5096520;28;20027;-78
2023/10/05 15:26:07;;;;;;;7.50;2.40;;;17.30;64.80;;;;;;5100085;28;20031;-78
2023/10/05 15:28:33;;;;;;;10.85;3.17;;;17.30;65.30;;;;;;5101498;28;20028;-78
2023/10/05 15:30:59;;;;;;;9.70;3.00;;;17.30;66.20;;;;;;5105395;28;20072;-78
2023/10/05 15:33:26;;;;;;;12.95;3.10;;;17.20;65.80;;;;;;5104916;28;20425;-78
2023/10/05 15:35:53;;;;;;;4.82;2.00;;;17.20;65.40;;;;;;5107498;28;20475;-91
2023/10/05 15:38:19;;;;;;;7.13;2.38;;;17.30;66.10;;;;;;5098937;28;20040;-94
2023/10/05 15:44:37;;;;;;;6.25;2.85;;;17.50;65.80;;;;;;5109789;28;20100;-92
2023/10/05 15:47:06;;;;;;;8.05;2.58;;;17.60;65.60;;;;;;5105109;28;20019;-93
2023/10/05 15:49:33;;;;;;;8.77;2.60;;;17.60;65.60;;;;;;5101605;28;20020;-92
2023/10/05 15:51:59;;;;;;;9.82;2.78;;;17.60;65.60;;;;;;5112258;28;20050;-94
2023/10/05 15:54:25;;;;;;;7.28;2.55;;;17.60;65.80;;;;;;5104106;28;20024;-92
2023/10/05 15:56:51;;;;;;;9.57;2.75;;;17.70;65.90;;;;;;5110213;28;20020;-92
2023/10/05 15:59:17;;;;;;;8.68;2.80;;;17.70;66.00;;;;;;5098052;28;20035;-93
2023/10/05 16:01:45;;;;;;;16.40;3.03;;;17.70;66.10;;;;;;5109403;28;20019;-93
2023/10/05 16:04:11;;;;;;;6.18;2.15;;;17.70;66.20;;;;;;5108974;28;20053;-92
2023/10/05 16:06:37;;;;;;;21.13;3.13;;;17.70;66.30;;;;;;5110655;28;20507;-91
2023/10/05 16:09:04;;;;;;;7.00;2.90;;;17.70;66.50;;;;;;5104647;28;20057;-93
2023/10/05 16:11:30;;;;;;;11.35;2.78;;;17.70;66.50;;;;;;5101628;28;20063;-93
2023/10/05 16:13:56;;;;;;;7.90;2.42;;;17.70;66.60;;;;;;5107823;28;20024;-93
2023/10/05 16:16:25;;;;;;;13.07;3.47;;;17.80;66.80;;;;;;5104584;28;20035;-93
2023/10/05 16:18:51;;;;;;;23.70;10.45;;;17.80;66.90;;;;;;5105840;28;20503;-92
2023/10/05 16:21:16;;;;;;;29.35;14.07;;;17.70;67.00;;;;;;5107520;28;20012;-93
2023/10/05 16:23:42;;;;;;;47.35;18.92;;;17.80;67.10;;;;;;5104330;28;20070;-92
2023/10/05 16:26:08;;;;;;;35.20;16.10;;;17.80;67.20;;;;;;5104981;28;20026;-92
2023/10/05 16:28:35;;;;;;;16.75;4.50;;;17.80;67.40;;;;;;5108835;28;20026;-93
2023/10/05 16:31:01;;;;;;;10.02;3.47;;;17.80;67.40;;;;;;5103751;28;20020;-94
2023/10/05 16:33:29;;;;;;;15.23;4.20;;;17.80;67.50;;;;;;5110143;28;20043;-92
2023/10/05 16:35:56;;;;;;;11.82;3.85;;;17.80;67.50;;;;;;5095049;28;20016;-93
2023/10/05 16:38:24;;;;;;;8.40;2.95;;;17.80;67.70;;;;;;5094212;28;20039;-93
2023/10/05 16:40:53;;;;;;;9.50;3.20;;;17.80;67.70;;;;;;5105028;28;20484;-92
2023/10/05 16:43:20;;;;;;;7.65;2.75;;;17.80;67.80;;;;;;5103320;28;20016;-93
2023/10/05 16:45:46;;;;;;;8.55;2.75;;;17.80;67.80;;;;;;5104548;28;20192;-93
2023/10/05 16:48:12;;;;;;;10.18;3.92;;;17.80;67.80;;;;;;5098718;28;20035;-93
2023/10/05 16:50:38;;;;;;;10.40;3.70;;;17.80;67.90;;;;;;5099881;28;20020;-94
2023/10/05 16:53:05;;;;;;;9.10;3.13;;;17.80;68.00;;;;;;5104870;28;20087;-93
2023/10/05 16:55:31;;;;;;;8.13;3.38;;;17.80;68.00;;;;;;5104972;28;20036;-93
2023/10/05 16:57:56;;;;;;;10.23;2.47;;;17.80;68.10;;;;;;5102422;28;20027;-92
2023/10/05 17:00:23;;;;;;;9.82;3.25;;;17.80;68.10;;;;;;5109510;28;20080;-95
2023/10/05 17:02:49;;;;;;;6.72;2.80;;;17.80;68.20;;;;;;5102054;28;20020;-94
2023/10/05 17:05:17;;;;;;;9.50;2.90;;;17.80;68.30;;;;;;5107901;28;20027;-93
2023/10/05 17:07:47;;;;;;;7.32;3.17;;;17.80;68.30;;;;;;5100246;28;20522;-92
2023/10/05 17:10:14;;;;;;;11.93;3.30;;;17.80;68.40;;;;;;5100066;28;20099;-95
2023/10/05 17:12:40;;;;;;;9.23;2.85;;;17.80;68.40;;;;;;5103290;28;20114;-92
2023/10/05 17:15:08;;;;;;;12.48;2.58;;;17.90;68.50;;;;;;5105941;28;20016;-94
2023/10/05 17:17:34;;;;;;;7.20;2.47;;;17.80;68.60;;;;;;5108413;28;20063;-95